sensor_id;sensor_type;location;lat;lon;timestamp;pressure;altitude;pressure_sealevel;temperature;humidity
12801;BME280;6464;42.494;27.470;2022-08-11T04:29:14;101495.47;;;21.76;100.00
12801;BME280;6464;42.494;27.470;2022-08-11T05:14:54;101444.13;;;22.31;100.00
12801;BME280;6464;42.494;27.470;2022-08-11T05:17:43;101488.88;;;22.64;100.00
12801;BME280;6464;42.494;27.470;2022-08-11T05:24:12;101487.25;;;22.93;100.00
12801;BME280;6464;42.494;27.470;2022-08-11T05:27:21;101450.25;;;22.80;100.00
12801;BME280;6464;42.494;27.470;2022-08-11T05:30:25;101530.66;;;23.32;100.00
12801;BME280;6464;42.494;27.470;2022-08-11T05:33:20;101520.38;;;23.39;100.00
12801;BME280;6464;42.494;27.470;2022-08-11T05:36:17;101498.66;;;23.42;100.00
12801;BME280;6464;42.494;27.470;2022-08-11T05:38:58;101491.78;;;23.52;100.00
12801;BME280;6464;42.494;27.470;2022-08-11T05:41:44;101467.88;;;23.32;100.00
12801;BME280;6464;42.494;27.470;2022-08-11T05:44:29;101532.44;;;23.78;100.00
12801;BME280;6464;42.494;27.470;2022-08-11T05:47:23;101533.16;;;23.96;100.00
12801;BME280;6464;42.494;27.470;2022-08-11T05:50:10;101454.38;;;23.62;100.00
12801;BME280;6464;42.494;27.470;2022-08-11T05:52:55;101528.53;;;24.12;100.00
12801;BME280;6464;42.494;27.470;2022-08-11T05:55:41;101517.00;;;24.24;100.00
12801;BME280;6464;42.494;27.470;2022-08-11T05:58:31;101484.25;;;24.02;100.00
12801;BME280;6464;42.494;27.470;2022-08-11T06:00:59;101543.00;;;24.40;100.00
12801;BME280;6464;42.494;27.470;2022-08-11T06:03:29;101530.66;;;24.50;100.00
12801;BME280;6464;42.494;27.470;2022-08-11T06:05:58;101551.25;;;24.65;100.00
12801;BME280;6464;42.494;27.470;2022-08-11T06:08:30;101555.72;;;24.52;100.00
12801;BME280;6464;42.494;27.470;2022-08-11T06:11:03;101540.38;;;24.67;100.00
12801;BME280;6464;42.494;27.470;2022-08-11T06:13:31;101543.84;;;24.54;100.00
12801;BME280;6464;42.494;27.470;2022-08-11T06:16:01;101516.88;;;24.26;100.00
12801;BME280;6464;42.494;27.470;2022-08-11T06:18:30;101482.13;;;24.21;100.00
12801;BME280;6464;42.494;27.470;2022-08-11T06:20:58;101534.69;;;24.71;100.00
12801;BME280;6464;42.494;27.470;2022-08-11T06:23:30;101542.78;;;24.71;100.00
12801;BME280;6464;42.494;27.470;2022-08-11T06:25:58;101539.28;;;24.83;100.00
12801;BME280;6464;42.494;27.470;2022-08-11T06:28:31;101480.66;;;24.58;100.00
12801;BME280;6464;42.494;27.470;2022-08-11T06:30:59;101548.28;;;25.11;100.00
12801;BME280;6464;42.494;27.470;2022-08-11T06:33:36;101448.97;;;24.62;100.00
12801;BME280;6464;42.494;27.470;2022-08-11T06:36:12;101539.16;;;25.26;100.00
12801;BME280;6464;42.494;27.470;2022-08-11T06:38:55;101529.78;;;25.05;100.00
12801;BME280;6464;42.494;27.470;2022-08-11T06:41:31;101531.59;;;24.77;100.00
12801;BME280;6464;42.494;27.470;2022-08-11T06:44:13;101527.53;;;24.70;100.00
12801;BME280;6464;42.494;27.470;2022-08-11T06:46:42;101457.97;;;24.20;100.00
12801;BME280;6464;42.494;27.470;2022-08-11T06:49:19;101531.19;;;24.83;100.00
12801;BME280;6464;42.494;27.470;2022-08-11T06:52:05;101526.59;;;24.71;100.00
12801;BME280;6464;42.494;27.470;2022-08-11T06:54:35;101477.28;;;24.55;100.00
12801;BME280;6464;42.494;27.470;2022-08-11T06:57:11;101481.06;;;24.52;100.00
12801;BME280;6464;42.494;27.470;2022-08-11T06:59:57;101489.66;;;24.45;100.00
12801;BME280;6464;42.494;27.470;2022-08-11T07:02:51;101539.91;;;25.01;100.00
12801;BME280;6464;42.494;27.470;2022-08-11T07:05:25;101489.47;;;24.75;100.00
12801;BME280;6464;42.494;27.470;2022-08-11T07:08:16;101494.97;;;24.73;100.00
12801;BME280;6464;42.494;27.470;2022-08-11T07:21:14;101488.75;;;25.00;100.00
12801;BME280;6464;42.494;27.470;2022-08-11T07:24:03;101574.34;;;25.52;100.00
12801;BME280;6464;42.494;27.470;2022-08-11T07:26:54;101497.47;;;25.03;100.00
12801;BME280;6464;42.494;27.470;2022-08-11T07:29:41;101569.63;;;25.68;100.00
12801;BME280;6464;42.494;27.470;2022-08-11T07:32:15;101512.09;;;25.41;100.00
12801;BME280;6464;42.494;27.470;2022-08-11T07:34:47;101496.94;;;25.25;100.00
12801;BME280;6464;42.494;27.470;2022-08-11T07:37:19;101560.94;;;25.77;100.00
12801;BME280;6464;42.494;27.470;2022-08-11T07:39:49;101562.34;;;25.96;100.00
12801;BME280;6464;42.494;27.470;2022-08-11T07:42:25;101575.53;;;26.13;100.00
12801;BME280;6464;42.494;27.470;2022-08-11T07:44:54;101581.16;;;26.23;100.00
12801;BME280;6464;42.494;27.470;2022-08-11T07:47:36;101533.59;;;25.95;100.00
12801;BME280;6464;42.494;27.470;2022-08-11T07:50:22;101579.66;;;26.31;100.00
12801;BME280;6464;42.494;27.470;2022-08-11T07:53:09;101581.06;;;26.37;100.00
12801;BME280;6464;42.494;27.470;2022-08-11T07:55:36;101501.03;;;25.96;100.00
12801;BME280;6464;42.494;27.470;2022-08-11T07:58:04;101508.69;;;26.15;100.00
12801;BME280;6464;42.494;27.470;2022-08-11T08:00:51;101521.28;;;26.16;100.00
12801;BME280;6464;42.494;27.470;2022-08-11T08:03:36;101488.06;;;26.14;100.00
12801;BME280;6464;42.494;27.470;2022-08-11T08:06:22;101560.13;;;26.77;100.00
12801;BME280;6464;42.494;27.470;2022-08-11T08:09:09;101541.78;;;26.94;100.00
12801;BME280;6464;42.494;27.470;2022-08-11T08:11:55;101526.78;;;26.77;100.00
12801;BME280;6464;42.494;27.470;2022-08-11T08:14:40;101539.69;;;27.10;100.00
12801;BME280;6464;42.494;27.470;2022-08-11T08:17:24;101561.91;;;27.26;100.00
12801;BME280;6464;42.494;27.470;2022-08-11T08:20:12;101556.13;;;27.07;100.00
12801;BME280;6464;42.494;27.470;2022-08-11T08:22:40;101557.00;;;27.31;100.00
12801;BME280;6464;42.494;27.470;2022-08-11T08:25:10;101556.81;;;27.46;100.00
12801;BME280;6464;42.494;27.470;2022-08-11T08:27:38;101499.00;;;26.99;100.00
12801;BME280;6464;42.494;27.470;2022-08-11T08:30:08;101554.69;;;27.62;100.00
12801;BME280;6464;42.494;27.470;2022-08-11T08:32:53;101511.44;;;27.25;100.00
12801;BME280;6464;42.494;27.470;2022-08-11T08:35:22;101545.22;;;27.67;100.00
12801;BME280;6464;42.494;27.470;2022-08-11T08:37:50;101560.09;;;27.86;100.00
12801;BME280;6464;42.494;27.470;2022-08-11T08:40:19;101558.19;;;27.75;100.00
12801;BME280;6464;42.494;27.470;2022-08-11T08:42:48;101554.94;;;27.70;100.00
12801;BME280;6464;42.494;27.470;2022-08-11T08:45:19;101572.44;;;28.12;100.00
12801;BME280;6464;42.494;27.470;2022-08-11T08:47:51;101576.28;;;28.32;100.00
12801;BME280;6464;42.494;27.470;2022-08-11T08:50:21;101569.88;;;28.22;100.00
12801;BME280;6464;42.494;27.470;2022-08-11T08:53:09;101555.25;;;27.89;100.00
12801;BME280;6464;42.494;27.470;2022-08-11T08:55:38;101581.38;;;28.59;100.00
12801;BME280;6464;42.494;27.470;2022-08-11T08:58:06;101549.69;;;28.49;100.00
12801;BME280;6464;42.494;27.470;2022-08-11T09:00:38;101582.72;;;28.65;100.00
12801;BME280;6464;42.494;27.470;2022-08-11T09:03:06;101574.59;;;28.54;100.00
12801;BME280;6464;42.494;27.470;2022-08-11T09:05:34;101558.78;;;28.70;100.00
12801;BME280;6464;42.494;27.470;2022-08-11T09:08:03;101547.66;;;28.84;100.00
12801;BME280;6464;42.494;27.470;2022-08-11T09:10:30;101527.00;;;28.38;100.00
12801;BME280;6464;42.494;27.470;2022-08-11T09:13:00;101575.38;;;29.22;100.00
12801;BME280;6464;42.494;27.470;2022-08-11T09:15:29;101558.75;;;29.04;100.00
12801;BME280;6464;42.494;27.470;2022-08-11T09:18:00;101503.50;;;28.71;100.00
12801;BME280;6464;42.494;27.470;2022-08-11T09:20:32;101554.72;;;29.30;100.00
12801;BME280;6464;42.494;27.470;2022-08-11T09:23:03;101551.41;;;28.61;100.00
12801;BME280;6464;42.494;27.470;2022-08-11T09:25:49;101509.47;;;28.42;100.00
12801;BME280;6464;42.494;27.470;2022-08-11T09:28:44;101517.69;;;28.18;100.00
12801;BME280;6464;42.494;27.470;2022-08-11T09:31:13;101519.19;;;28.23;100.00
12801;BME280;6464;42.494;27.470;2022-08-11T09:33:41;101547.41;;;28.87;100.00
12801;BME280;6464;42.494;27.470;2022-08-11T09:36:10;101556.97;;;29.78;100.00
12801;BME280;6464;42.494;27.470;2022-08-11T09:38:56;101564.75;;;30.65;100.00
12801;BME280;6464;42.494;27.470;2022-08-11T09:41:42;101544.09;;;31.03;100.00
12801;BME280;6464;42.494;27.470;2022-08-11T09:44:11;101558.97;;;30.98;100.00
12801;BME280;6464;42.494;27.470;2022-08-11T09:46:56;101580.44;;;31.52;100.00
12801;BME280;6464;42.494;27.470;2022-08-11T09:49:25;101574.66;;;31.16;100.00
12801;BME280;6464;42.494;27.470;2022-08-11T09:51:53;101574.56;;;31.85;100.00
12801;BME280;6464;42.494;27.470;2022-08-11T09:54:22;101576.59;;;32.30;100.00
12801;BME280;6464;42.494;27.470;2022-08-11T09:56:51;101588.38;;;32.40;100.00
12801;BME280;6464;42.494;27.470;2022-08-11T09:59:37;101591.16;;;32.58;100.00
12801;BME280;6464;42.494;27.470;2022-08-11T10:02:06;101566.50;;;31.64;100.00
12801;BME280;6464;42.494;27.470;2022-08-11T10:04:39;101560.91;;;31.85;100.00
12801;BME280;6464;42.494;27.470;2022-08-11T10:07:06;101568.53;;;31.62;100.00
12801;BME280;6464;42.494;27.470;2022-08-11T10:09:37;101579.00;;;32.33;100.00
12801;BME280;6464;42.494;27.470;2022-08-11T10:12:09;101557.25;;;32.14;100.00
12801;BME280;6464;42.494;27.470;2022-08-11T10:14:43;101566.22;;;32.43;100.00
12801;BME280;6464;42.494;27.470;2022-08-11T10:17:31;101574.72;;;32.68;100.00
12801;BME280;6464;42.494;27.470;2022-08-11T10:20:00;101557.44;;;33.22;100.00
12801;BME280;6464;42.494;27.470;2022-08-11T10:22:29;101586.63;;;33.04;100.00
12801;BME280;6464;42.494;27.470;2022-08-11T10:25:14;101556.19;;;32.24;100.00
12801;BME280;6464;42.494;27.470;2022-08-11T10:28:02;101531.22;;;31.82;100.00
12801;BME280;6464;42.494;27.470;2022-08-11T10:30:31;101520.44;;;32.28;100.00
12801;BME280;6464;42.494;27.470;2022-08-11T10:33:17;101542.22;;;32.00;100.00
12801;BME280;6464;42.494;27.470;2022-08-11T10:36:02;101531.06;;;31.84;100.00
12801;BME280;6464;42.494;27.470;2022-08-11T10:38:30;101534.25;;;31.40;100.00
12801;BME280;6464;42.494;27.470;2022-08-11T10:40:59;101514.25;;;30.82;100.00
12801;BME280;6464;42.494;27.470;2022-08-11T10:43:46;101516.56;;;31.06;100.00
12801;BME280;6464;42.494;27.470;2022-08-11T10:46:15;101516.84;;;31.22;100.00
12801;BME280;6464;42.494;27.470;2022-08-11T10:49:00;101509.53;;;31.13;100.00
12801;BME280;6464;42.494;27.470;2022-08-11T10:51:28;101471.94;;;31.55;100.00
12801;BME280;6464;42.494;27.470;2022-08-11T10:54:14;101525.47;;;31.46;100.00
12801;BME280;6464;42.494;27.470;2022-08-11T10:57:00;101498.03;;;31.77;100.00
12801;BME280;6464;42.494;27.470;2022-08-11T10:59:44;101517.69;;;31.90;100.00
12801;BME280;6464;42.494;27.470;2022-08-11T11:02:14;101533.78;;;32.31;100.00
12801;BME280;6464;42.494;27.470;2022-08-11T11:04:59;101547.31;;;32.22;100.00
12801;BME280;6464;42.494;27.470;2022-08-11T11:07:37;101523.59;;;32.60;100.00
12801;BME280;6464;42.494;27.470;2022-08-11T11:10:06;101527.91;;;32.26;100.00
12801;BME280;6464;42.494;27.470;2022-08-11T11:12:36;101521.38;;;32.46;100.00
12801;BME280;6464;42.494;27.470;2022-08-11T11:15:23;101497.47;;;31.83;100.00
12801;BME280;6464;42.494;27.470;2022-08-11T11:18:14;101514.97;;;31.71;100.00
12801;BME280;6464;42.494;27.470;2022-08-11T11:20:46;101502.53;;;31.49;100.00
12801;BME280;6464;42.494;27.470;2022-08-11T11:23:16;101502.03;;;31.92;100.00
12801;BME280;6464;42.494;27.470;2022-08-11T11:26:07;101539.94;;;33.33;100.00
12801;BME280;6464;42.494;27.470;2022-08-11T11:29:16;101541.03;;;34.02;100.00
12801;BME280;6464;42.494;27.470;2022-08-11T11:31:55;101539.13;;;35.13;100.00
12801;BME280;6464;42.494;27.470;2022-08-11T11:34:41;101557.41;;;34.46;100.00
12801;BME280;6464;42.494;27.470;2022-08-11T11:37:13;101542.06;;;33.04;100.00
12801;BME280;6464;42.494;27.470;2022-08-11T11:39:42;101550.47;;;34.34;100.00
12801;BME280;6464;42.494;27.470;2022-08-11T11:42:10;101529.16;;;33.93;100.00
12801;BME280;6464;42.494;27.470;2022-08-11T11:44:39;101516.06;;;33.17;100.00
12801;BME280;6464;42.494;27.470;2022-08-11T11:47:11;101519.91;;;33.42;100.00
12801;BME280;6464;42.494;27.470;2022-08-11T11:49:41;101502.31;;;33.27;100.00
12801;BME280;6464;42.494;27.470;2022-08-11T11:52:13;101526.63;;;35.27;100.00
12801;BME280;6464;42.494;27.470;2022-08-11T11:54:42;101500.19;;;34.09;100.00
12801;BME280;6464;42.494;27.470;2022-08-11T11:57:10;101479.88;;;33.41;100.00
12801;BME280;6464;42.494;27.470;2022-08-11T11:59:57;101492.16;;;33.89;100.00
12801;BME280;6464;42.494;27.470;2022-08-11T12:02:42;101518.19;;;34.45;100.00
12801;BME280;6464;42.494;27.470;2022-08-11T12:05:12;101515.84;;;34.67;100.00
12801;BME280;6464;42.494;27.470;2022-08-11T12:07:39;101507.41;;;34.52;100.00
12801;BME280;6464;42.494;27.470;2022-08-11T12:10:24;101521.78;;;34.46;100.00
12801;BME280;6464;42.494;27.470;2022-08-11T12:12:51;101474.56;;;34.10;100.00
12801;BME280;6464;42.494;27.470;2022-08-11T12:15:36;101508.84;;;34.64;100.00
12801;BME280;6464;42.494;27.470;2022-08-11T12:18:03;101508.97;;;34.20;100.00
12801;BME280;6464;42.494;27.470;2022-08-11T12:20:32;101502.38;;;34.90;100.00
12801;BME280;6464;42.494;27.470;2022-08-11T12:23:00;101500.94;;;35.12;100.00
12801;BME280;6464;42.494;27.470;2022-08-11T12:26:15;101500.34;;;34.41;100.00
12801;BME280;6464;42.494;27.470;2022-08-11T12:29:02;101495.84;;;34.32;100.00
12801;BME280;6464;42.494;27.470;2022-08-11T12:31:30;101489.13;;;33.92;100.00
12801;BME280;6464;42.494;27.470;2022-08-11T12:34:02;101505.94;;;34.58;100.00
12801;BME280;6464;42.494;27.470;2022-08-11T12:36:34;101517.69;;;35.00;100.00
12801;BME280;6464;42.494;27.470;2022-08-11T12:39:04;101515.38;;;34.80;100.00
12801;BME280;6464;42.494;27.470;2022-08-11T12:41:32;101522.56;;;34.72;100.00
12801;BME280;6464;42.494;27.470;2022-08-11T12:44:18;101529.72;;;35.24;100.00
12801;BME280;6464;42.494;27.470;2022-08-11T12:47:04;101528.69;;;35.33;100.00
12801;BME280;6464;42.494;27.470;2022-08-11T12:49:34;101528.44;;;34.94;100.00
12801;BME280;6464;42.494;27.470;2022-08-11T12:52:25;101525.41;;;35.05;100.00
12801;BME280;6464;42.494;27.470;2022-08-11T12:54:57;101523.56;;;35.30;100.00
12801;BME280;6464;42.494;27.470;2022-08-11T12:57:28;101491.44;;;33.53;100.00
12801;BME280;6464;42.494;27.470;2022-08-11T13:00:15;101491.06;;;34.76;100.00
12801;BME280;6464;42.494;27.470;2022-08-11T13:03:00;101522.16;;;35.10;100.00
12801;BME280;6464;42.494;27.470;2022-08-11T13:05:46;101507.00;;;34.73;100.00
12801;BME280;6464;42.494;27.470;2022-08-11T13:08:15;101499.41;;;35.25;100.00
12801;BME280;6464;42.494;27.470;2022-08-11T13:10:43;101489.84;;;34.71;100.00
12801;BME280;6464;42.494;27.470;2022-08-11T13:13:29;101476.59;;;33.02;100.00
12801;BME280;6464;42.494;27.470;2022-08-11T13:15:57;101460.31;;;32.83;100.00
12801;BME280;6464;42.494;27.470;2022-08-11T13:18:24;101473.63;;;33.49;100.00
12801;BME280;6464;42.494;27.470;2022-08-11T13:20:53;101478.69;;;34.14;100.00
12801;BME280;6464;42.494;27.470;2022-08-11T13:23:23;101488.75;;;34.47;100.00
12801;BME280;6464;42.494;27.470;2022-08-11T13:25:52;101410.16;;;33.02;100.00
12801;BME280;6464;42.494;27.470;2022-08-11T13:28:21;101461.25;;;33.63;100.00
12801;BME280;6464;42.494;27.470;2022-08-11T13:30:48;101465.03;;;33.70;100.00
12801;BME280;6464;42.494;27.470;2022-08-11T13:33:34;101462.47;;;32.16;100.00
12801;BME280;6464;42.494;27.470;2022-08-11T13:36:02;101394.69;;;30.88;100.00
12801;BME280;6464;42.494;27.470;2022-08-11T13:38:32;101395.28;;;30.13;100.00
12801;BME280;6464;42.494;27.470;2022-08-11T13:41:02;101401.47;;;29.84;100.00
12801;BME280;6464;42.494;27.470;2022-08-11T13:43:51;101419.50;;;29.85;100.00
12801;BME280;6464;42.494;27.470;2022-08-11T13:46:21;101434.03;;;30.45;100.00
12801;BME280;6464;42.494;27.470;2022-08-11T13:48:50;101428.31;;;30.49;100.00
12801;BME280;6464;42.494;27.470;2022-08-11T13:51:18;101468.19;;;31.66;100.00
12801;BME280;6464;42.494;27.470;2022-08-11T13:54:02;101470.13;;;32.58;100.00
12801;BME280;6464;42.494;27.470;2022-08-11T13:56:30;101467.38;;;31.46;100.00
12801;BME280;6464;42.494;27.470;2022-08-11T13:58:58;101449.59;;;31.13;100.00
12801;BME280;6464;42.494;27.470;2022-08-11T14:01:29;101424.25;;;29.62;100.00
12801;BME280;6464;42.494;27.470;2022-08-11T14:04:02;101387.75;;;29.44;100.00
12801;BME280;6464;42.494;27.470;2022-08-11T14:06:31;101444.31;;;30.02;100.00
12801;BME280;6464;42.494;27.470;2022-08-11T14:09:02;101426.09;;;29.92;100.00
12801;BME280;6464;42.494;27.470;2022-08-11T14:11:33;101469.63;;;31.60;100.00
12801;BME280;6464;42.494;27.470;2022-08-11T14:14:21;101465.22;;;30.72;100.00
12801;BME280;6464;42.494;27.470;2022-08-11T14:16:49;101444.97;;;30.15;100.00
12801;BME280;6464;42.494;27.470;2022-08-11T14:19:21;101443.88;;;29.96;100.00
12801;BME280;6464;42.494;27.470;2022-08-11T14:21:50;101447.66;;;30.65;100.00
12801;BME280;6464;42.494;27.470;2022-08-11T14:24:36;101478.69;;;31.61;100.00
12801;BME280;6464;42.494;27.470;2022-08-11T14:27:05;101504.06;;;32.28;100.00
12801;BME280;6464;42.494;27.470;2022-08-11T14:29:33;101462.72;;;30.59;100.00
12801;BME280;6464;42.494;27.470;2022-08-11T14:32:05;101427.25;;;29.90;100.00
12801;BME280;6464;42.494;27.470;2022-08-11T14:34:34;101457.34;;;30.29;100.00
12801;BME280;6464;42.494;27.470;2022-08-11T14:37:04;101454.41;;;30.61;100.00
12801;BME280;6464;42.494;27.470;2022-08-11T14:39:37;101443.69;;;31.46;100.00
12801;BME280;6464;42.494;27.470;2022-08-11T14:42:06;101508.78;;;32.35;100.00
12801;BME280;6464;42.494;27.470;2022-08-11T14:44:56;101480.38;;;31.71;100.00
12801;BME280;6464;42.494;27.470;2022-08-11T14:47:42;101464.50;;;30.89;100.00
12801;BME280;6464;42.494;27.470;2022-08-11T14:50:12;101453.25;;;29.83;100.00
12801;BME280;6464;42.494;27.470;2022-08-11T14:52:46;101446.63;;;29.34;100.00
12801;BME280;6464;42.494;27.470;2022-08-11T14:55:16;101437.91;;;29.30;100.00
12801;BME280;6464;42.494;27.470;2022-08-11T14:58:02;101396.75;;;28.82;100.00
12801;BME280;6464;42.494;27.470;2022-08-11T15:00:30;101402.38;;;28.90;100.00
12801;BME280;6464;42.494;27.470;2022-08-11T15:02:59;101431.25;;;29.02;100.00
12801;BME280;6464;42.494;27.470;2022-08-11T15:05:35;101430.13;;;28.93;100.00
12801;BME280;6464;42.494;27.470;2022-08-11T15:08:03;101431.56;;;29.09;100.00
12801;BME280;6464;42.494;27.470;2022-08-11T15:10:33;101426.81;;;29.01;100.00
12801;BME280;6464;42.494;27.470;2022-08-11T15:13:01;101421.78;;;28.85;100.00
12801;BME280;6464;42.494;27.470;2022-08-11T15:15:29;101417.63;;;28.70;100.00
12801;BME280;6464;42.494;27.470;2022-08-11T15:18:16;101407.16;;;28.65;100.00
12801;BME280;6464;42.494;27.470;2022-08-11T15:20:44;101409.06;;;28.42;100.00
12801;BME280;6464;42.494;27.470;2022-08-11T15:23:29;101415.59;;;28.94;100.00
12801;BME280;6464;42.494;27.470;2022-08-11T15:26:17;101419.84;;;29.08;100.00
12801;BME280;6464;42.494;27.470;2022-08-11T15:29:05;101416.56;;;29.26;100.00
12801;BME280;6464;42.494;27.470;2022-08-11T15:31:46;101415.47;;;29.38;100.00
12801;BME280;6464;42.494;27.470;2022-08-11T15:34:38;101414.34;;;29.19;100.00
12801;BME280;6464;42.494;27.470;2022-08-11T15:37:23;101410.53;;;28.90;100.00
12801;BME280;6464;42.494;27.470;2022-08-11T15:39:56;101416.91;;;29.00;100.00
12801;BME280;6464;42.494;27.470;2022-08-11T15:42:50;101404.22;;;28.89;100.00
12801;BME280;6464;42.494;27.470;2022-08-11T15:45:38;101406.78;;;28.70;100.00
12801;BME280;6464;42.494;27.470;2022-08-11T15:48:26;101318.13;;;28.16;100.00
12801;BME280;6464;42.494;27.470;2022-08-11T15:50:57;101363.31;;;28.49;100.00
12801;BME280;6464;42.494;27.470;2022-08-11T15:53:32;101410.94;;;28.53;100.00
12801;BME280;6464;42.494;27.470;2022-08-11T15:56:01;101367.28;;;28.45;100.00
12801;BME280;6464;42.494;27.470;2022-08-11T15:58:33;101389.59;;;28.49;100.00
12801;BME280;6464;42.494;27.470;2022-08-11T16:01:20;101318.75;;;28.20;100.00
12801;BME280;6464;42.494;27.470;2022-08-11T16:04:09;101396.16;;;28.78;100.00
12801;BME280;6464;42.494;27.470;2022-08-11T16:06:58;101397.16;;;28.66;100.00
12801;BME280;6464;42.494;27.470;2022-08-11T16:09:30;101357.06;;;28.26;100.00
12801;BME280;6464;42.494;27.470;2022-08-11T16:12:00;101396.53;;;28.19;100.00
12801;BME280;6464;42.494;27.470;2022-08-11T16:14:32;101398.25;;;28.09;100.00
12801;BME280;6464;42.494;27.470;2022-08-11T16:17:18;101398.03;;;28.01;100.00
12801;BME280;6464;42.494;27.470;2022-08-11T16:19:49;101398.50;;;27.95;100.00
12801;BME280;6464;42.494;27.470;2022-08-11T16:22:21;101395.56;;;27.98;100.00
12801;BME280;6464;42.494;27.470;2022-08-11T16:24:55;101378.56;;;27.84;100.00
12801;BME280;6464;42.494;27.470;2022-08-11T16:27:22;101323.13;;;27.32;100.00
12801;BME280;6464;42.494;27.470;2022-08-11T16:29:54;101406.25;;;27.65;100.00
12801;BME280;6464;42.494;27.470;2022-08-11T16:32:22;101399.69;;;27.46;100.00
12801;BME280;6464;42.494;27.470;2022-08-11T16:34:54;101391.34;;;27.37;100.00
12801;BME280;6464;42.494;27.470;2022-08-11T16:37:40;101370.84;;;27.22;100.00
12801;BME280;6464;42.494;27.470;2022-08-11T16:40:25;101331.75;;;26.91;100.00
12801;BME280;6464;42.494;27.470;2022-08-11T16:42:54;101321.97;;;26.77;100.00
12801;BME280;6464;42.494;27.470;2022-08-11T16:45:41;101364.38;;;27.01;100.00
12801;BME280;6464;42.494;27.470;2022-08-11T16:48:29;101375.69;;;26.95;100.00
12801;BME280;6464;42.494;27.470;2022-08-11T16:50:57;101374.00;;;27.05;100.00
12801;BME280;6464;42.494;27.470;2022-08-11T16:53:27;101372.72;;;26.98;100.00
12801;BME280;6464;42.494;27.470;2022-08-11T16:55:55;101364.06;;;26.81;100.00
12801;BME280;6464;42.494;27.470;2022-08-11T16:58:26;101387.03;;;27.00;100.00
12801;BME280;6464;42.494;27.470;2022-08-11T17:01:13;101362.31;;;26.69;100.00
12801;BME280;6464;42.494;27.470;2022-08-11T17:03:46;101383.19;;;26.67;100.00
12801;BME280;6464;42.494;27.470;2022-08-11T17:06:32;101385.84;;;26.56;100.00
12801;BME280;6464;42.494;27.470;2022-08-11T17:09:21;101391.13;;;26.57;100.00
12801;BME280;6464;42.494;27.470;2022-08-11T17:12:07;101403.25;;;26.64;100.00
12801;BME280;6464;42.494;27.470;2022-08-11T17:14:59;101375.59;;;26.48;100.00
12801;BME280;6464;42.494;27.470;2022-08-11T17:17:32;101396.25;;;26.49;100.00
12801;BME280;6464;42.494;27.470;2022-08-11T17:20:02;101401.56;;;26.51;100.00
12801;BME280;6464;42.494;27.470;2022-08-11T17:22:33;101415.50;;;26.57;100.00
12801;BME280;6464;42.494;27.470;2022-08-11T17:25:19;101357.56;;;26.12;100.00
12801;BME280;6464;42.494;27.470;2022-08-11T17:27:47;101359.91;;;26.17;100.00
12801;BME280;6464;42.494;27.470;2022-08-11T17:30:16;101412.59;;;26.48;100.00
12801;BME280;6464;42.494;27.470;2022-08-11T17:32:47;101349.88;;;26.06;100.00
12801;BME280;6464;42.494;27.470;2022-08-11T17:35:35;101378.50;;;26.21;100.00
12801;BME280;6464;42.494;27.470;2022-08-11T17:38:06;101423.66;;;26.45;100.00
12801;BME280;6464;42.494;27.470;2022-08-11T17:40:39;101432.19;;;26.38;100.00
12801;BME280;6464;42.494;27.470;2022-08-11T17:43:28;101435.13;;;26.35;100.00
12801;BME280;6464;42.494;27.470;2022-08-11T17:46:12;101429.41;;;26.27;100.00
12801;BME280;6464;42.494;27.470;2022-08-11T17:48:58;101418.19;;;26.21;100.00
12801;BME280;6464;42.494;27.470;2022-08-11T17:51:27;101428.75;;;26.36;100.00
12801;BME280;6464;42.494;27.470;2022-08-11T17:54:13;101430.16;;;26.29;100.00
12801;BME280;6464;42.494;27.470;2022-08-11T17:56:59;101387.84;;;25.92;100.00
12801;BME280;6464;42.494;27.470;2022-08-11T17:59:44;101431.06;;;26.17;100.00
12801;BME280;6464;42.494;27.470;2022-08-11T18:02:21;101429.03;;;26.08;100.00
12801;BME280;6464;42.494;27.470;2022-08-11T18:05:09;101437.47;;;26.16;100.00
12801;BME280;6464;42.494;27.470;2022-08-11T18:07:37;101380.00;;;25.76;100.00
12801;BME280;6464;42.494;27.470;2022-08-11T18:10:23;101441.34;;;26.12;100.00
12801;BME280;6464;42.494;27.470;2022-08-11T18:13:09;101415.78;;;25.92;100.00
12801;BME280;6464;42.494;27.470;2022-08-11T18:15:54;101446.44;;;26.04;100.00
12801;BME280;6464;42.494;27.470;2022-08-11T18:18:38;101399.56;;;25.79;100.00
12801;BME280;6464;42.494;27.470;2022-08-11T18:21:26;101445.47;;;26.05;100.00
12801;BME280;6464;42.494;27.470;2022-08-11T18:24:15;101393.59;;;25.74;100.00
12801;BME280;6464;42.494;27.470;2022-08-11T18:27:03;101435.63;;;26.04;100.00
12801;BME280;6464;42.494;27.470;2022-08-11T18:29:50;101428.38;;;25.92;100.00
12801;BME280;6464;42.494;27.470;2022-08-11T18:32:36;101374.72;;;25.49;100.00
12801;BME280;6464;42.494;27.470;2022-08-11T18:35:23;101391.00;;;25.60;100.00
12801;BME280;6464;42.494;27.470;2022-08-11T18:38:10;101430.25;;;25.78;100.00
12801;BME280;6464;42.494;27.470;2022-08-11T18:40:58;101371.47;;;25.44;100.00
12801;BME280;6464;42.494;27.470;2022-08-11T18:43:45;101377.19;;;25.39;100.00
12801;BME280;6464;42.494;27.470;2022-08-11T18:46:33;101337.31;;;25.17;100.00
12801;BME280;6464;42.494;27.470;2022-08-11T18:49:23;101384.00;;;25.45;100.00
12801;BME280;6464;42.494;27.470;2022-08-11T18:52:10;101438.38;;;25.78;100.00
12801;BME280;6464;42.494;27.470;2022-08-11T18:54:59;101437.38;;;25.79;100.00
12801;BME280;6464;42.494;27.470;2022-08-11T18:57:46;101391.22;;;25.44;100.00